createdAt,value
2022-11-22T00:04:15.326Z,99079.69
2022-11-22T00:14:36.772Z,99066.19
2022-11-22T00:24:58.437Z,99033.88
2022-11-22T00:35:20.165Z,99005.94
2022-11-22T00:45:41.967Z,99016.13
2022-11-22T00:56:03.468Z,98997.50
2022-11-22T01:06:24.914Z,99014.78
2022-11-22T01:16:47.435Z,99019.09
2022-11-22T01:27:08.983Z,99018.34
2022-11-22T01:37:30.430Z,99006.44
2022-11-22T01:47:52.988Z,98989.41
2022-11-22T01:58:15.528Z,98993.03
2022-11-22T02:09:02.302Z,98989.56
2022-11-22T02:19:39.182Z,98960.47
2022-11-22T02:30:00.665Z,98965.50
2022-11-22T02:40:23.413Z,98928.81
2022-11-22T02:50:45.004Z,98940.72
2022-11-22T03:01:06.473Z,98932.53
2022-11-22T03:11:28.041Z,98920.38
2022-11-22T03:21:50.159Z,98933.19
2022-11-22T03:32:11.720Z,98924.97
2022-11-22T03:42:33.185Z,98918.78
2022-11-22T03:52:54.609Z,98925.41
2022-11-22T04:03:17.137Z,98922.59
2022-11-22T04:13:57.263Z,98921.56
2022-11-22T04:24:37.467Z,98898.44
2022-11-22T04:34:58.924Z,98912.91
2022-11-22T04:45:20.627Z,98916.88
2022-11-22T04:55:46.202Z,98913.94
2022-11-22T05:06:07.671Z,98930.06
2022-11-22T05:16:29.228Z,98934.13
2022-11-22T05:26:50.658Z,98952.72
2022-11-22T05:37:12.127Z,98935.44
2022-11-22T05:47:35.490Z,98936.91
2022-11-22T05:58:03.990Z,98939.28
2022-11-22T06:08:25.576Z,98951.94
2022-11-22T06:18:47.620Z,98953.25
2022-11-22T06:29:09.316Z,98951.41
2022-11-22T06:39:31.381Z,98952.75
2022-11-22T06:49:53.038Z,98944.59
2022-11-22T07:00:15.094Z,98945.72
2022-11-22T07:10:36.935Z,98956.63
2022-11-22T07:21:04.734Z,98967.44
2022-11-22T07:31:28.438Z,98982.59
2022-11-22T07:41:49.909Z,99006.91
2022-11-22T07:52:11.358Z,99003.25
2022-11-22T08:02:32.907Z,98997.75
2022-11-22T08:12:58.073Z,99017.31
2022-11-22T08:23:19.867Z,99026.22
2022-11-22T08:33:41.538Z,99036.84
2022-11-22T08:44:03.442Z,99039.44
2022-11-22T08:54:24.957Z,99048.25
2022-11-22T09:04:46.394Z,99059.03
2022-11-22T09:15:08.182Z,99050.84
2022-11-22T09:25:29.639Z,99059.66
2022-11-22T09:35:51.086Z,99068.91
2022-11-22T09:46:32.872Z,99078.91
2022-11-22T09:56:57.649Z,99077.59
2022-11-22T10:07:24.811Z,99074.44
2022-11-22T10:17:58.430Z,99076.97
2022-11-22T10:28:35.859Z,99083.09
2022-11-22T10:39:00.370Z,99075.53
2022-11-22T10:49:41.908Z,99075.56
2022-11-22T11:00:18.376Z,99067.25
2022-11-22T11:10:40.901Z,99065.56
2022-11-22T11:21:02.447Z,99064.63
2022-11-22T11:31:42.682Z,99048.47
2022-11-22T11:42:25.157Z,99051.78
2022-11-22T11:53:03.025Z,99051.97
2022-11-22T12:03:25.487Z,99064.09
2022-11-22T12:14:18.979Z,99056.22
2022-11-22T12:35:27.416Z,99049.00
2022-11-22T12:45:53.811Z,99047.69
2022-11-22T12:48:22.381Z,99046.91
2022-11-22T12:56:33.305Z,99048.63
2022-11-22T13:07:19.959Z,99053.41
2022-11-22T13:17:41.486Z,99053.34
2022-11-22T13:28:11.181Z,99049.34
2022-11-22T13:38:32.711Z,99069.84
2022-11-22T13:48:54.522Z,99070.28
2022-11-22T13:59:18.293Z,99080.75
2022-11-22T14:09:44.667Z,99064.44
2022-11-22T14:20:34.075Z,99058.69
2022-11-22T14:30:57.330Z,99059.34
2022-11-22T14:41:38.910Z,99060.94
2022-11-22T14:52:01.600Z,99057.38
2022-11-22T15:03:00.791Z,99068.34
2022-11-22T15:13:38.249Z,99065.31
2022-11-22T16:07:27.289Z,99094.91
2022-11-22T16:17:59.465Z,99093.16
2022-11-22T16:28:38.162Z,99078.59
2022-11-22T16:38:59.647Z,99085.63
2022-11-22T16:49:22.732Z,99079.91
2022-11-22T16:59:44.207Z,99080.16
2022-11-22T17:10:06.286Z,99101.84
2022-11-22T17:20:27.650Z,99123.41
2022-11-22T17:30:50.323Z,99120.22
2022-11-22T17:41:11.768Z,99138.19
2022-11-22T17:51:33.349Z,99142.41
2022-11-22T18:01:54.884Z,99144.72
2022-11-22T18:12:16.377Z,99138.38
2022-11-22T18:22:37.856Z,99155.53
2022-11-22T18:33:00.358Z,99151.81
2022-11-22T18:43:21.839Z,99158.84
2022-11-22T18:53:43.472Z,99155.56
2022-11-22T19:04:05.194Z,99147.50
2022-11-22T19:14:29.015Z,99143.69
2022-11-22T19:24:51.434Z,99140.00
2022-11-22T19:35:13.194Z,99147.53
2022-11-22T19:45:34.640Z,99153.59
2022-11-22T19:56:01.955Z,99151.75
2022-11-22T20:06:23.996Z,99157.84
2022-11-22T20:16:45.400Z,99154.72
2022-11-22T20:27:09.135Z,99158.66
2022-11-22T20:37:30.582Z,99156.78
2022-11-22T20:47:52.028Z,99163.59
2022-11-22T20:58:13.486Z,99158.25
2022-11-22T21:08:35.171Z,99152.06
2022-11-22T21:19:00.916Z,99162.38
2022-11-22T21:29:22.371Z,99159.28
2022-11-22T21:39:44.311Z,99169.31
2022-11-22T21:50:11.470Z,99165.47
2022-11-22T22:00:33.460Z,99177.03
2022-11-22T22:10:58.403Z,99175.69
2022-11-22T22:21:21.099Z,99167.31
2022-11-22T22:31:42.555Z,99180.00
2022-11-22T22:42:04.175Z,99193.13
2022-11-22T22:52:25.639Z,99182.19
2022-11-22T23:02:47.380Z,99183.84
2022-11-22T23:13:08.887Z,99186.91
2022-11-22T23:23:30.862Z,99187.22
2022-11-22T23:33:52.340Z,99188.75
2022-11-22T23:44:13.990Z,99192.25
2022-11-22T23:54:35.443Z,99189.16
